Time;durP1;ratioP1;P1;durP2;ratioP2;P2;SDS_P1;SDS_P2;PMS_P1;PMS_P2;Temp;Humidity;BMP_temperature;BMP_pressure;BME280_temperature;BME280_humidity;BME280_pressure;Samples;Min_cycle;Max_cycle;Signal;HPM_P1;HPM_P2
2023/07/13 00:02:44;;;;;;;6.10;4.30;;;;;;;18.68;82.77;99735.20;129381;1271;107749;-77
2023/07/13 00:06:00;;;;;;;7.50;4.20;;;;;;;18.66;82.91;99733.71;129468;1271;107152;-76
2023/07/13 00:09:06;;;;;;;6.10;4.00;;;;;;;18.64;83.04;99725.80;129558;1273;106340;-76
2023/07/13 00:12:28;;;;;;;5.30;4.30;;;;;;;18.65;83.17;99719.96;129561;1279;107066;-76
2023/07/13 00:15:35;;;;;;;5.60;4.20;;;;;;;18.63;83.16;99720.97;129535;1268;107299;-76
2023/07/13 00:18:41;;;;;;;4.30;3.80;;;;;;;18.60;83.00;99717.09;129488;1273;107547;-76
2023/07/13 00:21:47;;;;;;;4.30;3.40;;;;;;;18.59;83.17;99714.06;129531;1274;107564;-76
2023/07/13 00:24:53;;;;;;;4.10;3.70;;;;;;;18.58;83.13;99712.41;129566;1274;107581;-76
2023/07/13 00:27:58;;;;;;;5.40;4.00;;;;;;;18.56;82.95;99715.66;129527;1280;107444;-76
2023/07/13 00:31:04;;;;;;;4.80;4.10;;;;;;;18.50;83.07;99714.24;129533;1271;107577;-76
2023/07/13 00:34:10;;;;;;;4.20;3.80;;;;;;;18.49;83.42;99711.84;129591;1270;107477;-76
2023/07/13 00:37:15;;;;;;;4.80;3.70;;;;;;;18.49;83.17;99710.48;129518;1267;107592;-76
2023/07/13 00:40:21;;;;;;;4.80;4.00;;;;;;;18.49;83.25;99713.73;129339;1273;175457;-77
2023/07/13 00:43:29;;;;;;;4.70;4.20;;;;;;;18.49;83.26;99714.43;129421;1267;107699;-76
2023/07/13 00:46:35;;;;;;;7.70;4.90;;;;;;;18.49;83.30;99714.39;129382;1274;107239;-76
2023/07/13 00:49:42;;;;;;;4.40;4.00;;;;;;;18.47;83.40;99717.42;129250;1273;108570;-76
2023/07/13 00:52:50;;;;;;;5.20;3.90;;;;;;;18.47;83.61;99720.83;129339;1266;107578;-76
2023/07/13 00:55:57;;;;;;;7.00;3.60;;;;;;;18.45;83.41;99723.72;129504;1273;107429;-76
2023/07/13 00:59:06;;;;;;;4.10;3.60;;;;;;;18.43;83.55;99724.67;129432;1272;107375;-77
2023/07/13 01:02:13;;;;;;;5.70;3.80;;;;;;;18.44;83.77;99724.09;129301;1274;107490;-76
2023/07/13 01:05:20;;;;;;;4.40;3.60;;;;;;;18.44;83.84;99722.17;129260;1273;107563;-77
2023/07/13 01:08:26;;;;;;;3.70;3.30;;;;;;;18.41;83.76;99724.13;129109;1283;107643;-77
2023/07/13 01:11:32;;;;;;;5.00;3.60;;;;;;;18.41;83.93;99726.27;129276;1273;107281;-77
2023/07/13 01:14:38;;;;;;;3.90;3.50;;;;;;;18.39;83.90;99734.42;129380;1281;107545;-77
2023/07/13 01:17:44;;;;;;;4.60;3.80;;;;;;;18.40;84.06;99733.92;129436;1270;107592;-77
2023/07/13 01:20:54;;;;;;;5.00;4.10;;;;;;;18.40;84.03;99736.05;129484;1274;107550;-76
2023/07/13 01:24:00;;;;;;;5.50;3.70;;;;;;;18.39;84.14;99739.13;129327;1271;107648;-77
2023/07/13 01:27:07;;;;;;;4.70;3.70;;;;;;;18.40;84.07;99732.52;129205;1273;107550;-77
2023/07/13 01:30:14;;;;;;;4.30;3.50;;;;;;;18.37;83.84;99731.70;129335;1267;107535;-76
2023/07/13 01:33:20;;;;;;;4.10;3.80;;;;;;;18.36;84.28;99724.77;129394;1273;106585;-77
2023/07/13 01:36:25;;;;;;;6.40;4.10;;;;;;;18.38;84.23;99719.48;129351;1273;107513;-76
2023/07/13 01:39:31;;;;;;;6.90;4.00;;;;;;;18.39;84.17;99717.52;129438;1272;108496;-77
2023/07/13 01:42:37;;;;;;;5.10;3.70;;;;;;;18.37;84.46;99718.52;129470;1268;108587;-76
2023/07/13 01:45:48;;;;;;;5.80;3.50;;;;;;;18.41;84.71;99720.50;129504;1274;107337;-76
2023/07/13 01:48:53;;;;;;;6.80;4.10;;;;;;;18.43;84.59;99720.84;129302;1274;107666;-76
2023/07/13 01:51:59;;;;;;;5.40;3.60;;;;;;;18.43;84.42;99720.56;129253;1273;108158;-76
2023/07/13 01:55:05;;;;;;;6.20;4.10;;;;;;;18.40;84.28;99720.63;129171;1280;107688;-76
2023/07/13 01:58:11;;;;;;;5.00;3.90;;;;;;;18.36;84.34;99724.60;129482;1280;107271;-76
2023/07/13 02:01:16;;;;;;;5.80;3.90;;;;;;;18.32;84.30;99728.99;129206;1273;107679;-77
2023/07/13 02:04:22;;;;;;;5.80;3.80;;;;;;;18.31;84.35;99727.70;129300;1274;108081;-77
2023/07/13 02:07:28;;;;;;;5.90;4.20;;;;;;;18.32;84.46;99728.25;129534;1272;107498;-77
2023/07/13 02:10:33;;;;;;;5.00;4.50;;;;;;;18.33;84.54;99728.48;129471;1267;106508;-77
2023/07/13 02:13:39;;;;;;;7.10;4.20;;;;;;;18.33;84.26;99725.12;129139;1273;107681;-77
2023/07/13 02:16:45;;;;;;;6.30;3.90;;;;;;;18.27;84.29;99724.15;129344;1273;107581;-76
2023/07/13 02:19:50;;;;;;;4.60;3.70;;;;;;;18.22;84.49;99724.60;129217;1280;107649;-76
2023/07/13 02:22:56;;;;;;;6.00;3.90;;;;;;;18.19;84.50;99725.19;129447;1281;107499;-77
2023/07/13 02:26:03;;;;;;;7.90;4.20;;;;;;;18.18;84.32;99719.52;129324;1274;108268;-76
2023/07/13 02:29:09;;;;;;;5.00;4.00;;;;;;;18.14;84.36;99723.86;129323;1281;107582;-76
2023/07/13 02:32:15;;;;;;;5.00;3.90;;;;;;;18.12;84.45;99720.54;129287;1279;107640;-76
2023/07/13 02:35:20;;;;;;;4.20;3.60;;;;;;;18.09;84.36;99721.47;129358;1274;107271;-76
2023/07/13 02:38:26;;;;;;;6.30;4.60;;;;;;;18.07;84.43;99719.73;129400;1270;107504;-76
2023/07/13 02:41:32;;;;;;;7.60;4.10;;;;;;;18.05;84.38;99717.33;129553;1267;108200;-76
2023/07/13 02:44:38;;;;;;;5.00;4.50;;;;;;;18.05;84.80;99718.24;129444;1280;107565;-77
2023/07/13 02:47:44;;;;;;;5.30;3.90;;;;;;;18.06;84.66;99719.37;129465;1273;107296;-77
2023/07/13 02:50:50;;;;;;;3.90;3.30;;;;;;;18.02;84.32;99720.05;129378;1274;106602;-76
2023/07/13 02:53:55;;;;;;;4.90;3.70;;;;;;;17.96;84.23;99722.15;129346;1267;107580;-77
2023/07/13 02:57:01;;;;;;;4.10;3.60;;;;;;;17.93;84.31;99723.17;129573;1281;107521;-76
2023/07/13 03:00:10;;;;;;;6.20;3.90;;;;;;;17.91;84.43;99727.27;129472;1272;106562;-76
2023/07/13 03:03:16;;;;;;;5.80;4.00;;;;;;;17.88;84.23;99724.23;129596;1267;108112;-76
2023/07/13 03:06:22;;;;;;;4.10;3.70;;;;;;;17.82;84.29;99728.55;129448;1274;107411;-76
2023/07/13 03:09:30;;;;;;;4.00;3.60;;;;;;;17.79;84.45;99729.87;129423;1273;107615;-76
2023/07/13 03:12:39;;;;;;;4.80;3.60;;;;;;;17.78;84.36;99730.58;129519;1281;107483;-77
2023/07/13 03:15:50;;;;;;;7.50;3.70;;;;;;;17.76;84.30;99723.82;129319;1272;107655;-76
2023/07/13 03:18:56;;;;;;;5.80;3.80;;;;;;;17.78;84.36;99721.83;129338;1272;107303;-76
2023/07/13 03:22:02;;;;;;;5.00;3.90;;;;;;;17.79;84.40;99713.39;129473;1273;107530;-76
2023/07/13 03:25:10;;;;;;;5.00;3.70;;;;;;;17.80;84.38;99710.32;129362;1274;107503;-76
2023/07/13 03:28:16;;;;;;;5.10;3.50;;;;;;;17.91;84.66;99711.67;129120;1273;107597;-76
2023/07/13 03:31:25;;;;;;;5.70;3.60;;;;;;;18.07;84.57;99710.39;129312;1281;107358;-77
2023/07/13 03:34:31;;;;;;;3.90;3.50;;;;;;;18.21;84.61;99708.02;129128;1273;107572;-77
2023/07/13 03:37:42;;;;;;;5.30;3.80;;;;;;;18.36;84.38;99706.64;129457;1273;107500;-76
2023/07/13 03:40:49;;;;;;;4.50;3.60;;;;;;;18.59;84.59;99713.43;129309;1279;107545;-76
2023/07/13 03:43:54;;;;;;;3.70;3.30;;;;;;;18.88;84.64;99718.30;129267;1274;107501;-77
2023/07/13 03:47:01;;;;;;;6.60;4.20;;;;;;;19.15;84.38;99728.94;129488;1273;107483;-77
2023/07/13 03:50:08;;;;;;;4.10;3.50;;;;;;;19.39;84.55;99735.16;129367;1267;107520;-76
2023/07/13 03:53:14;;;;;;;5.60;4.50;;;;;;;19.67;84.15;99730.49;129338;1276;108573;-78
2023/07/13 03:56:21;;;;;;;6.20;4.50;;;;;;;19.70;83.76;99728.66;129474;1267;106512;-77
2023/07/13 03:59:26;;;;;;;5.40;4.10;;;;;;;19.70;84.17;99730.80;129457;1273;107719;-77
2023/07/13 04:02:32;;;;;;;4.90;4.40;;;;;;;19.78;84.58;99731.48;129352;1280;107506;-76
2023/07/13 04:05:39;;;;;;;5.20;3.80;;;;;;;19.89;84.56;99735.85;129362;1275;108122;-77
2023/07/13 04:08:44;;;;;;;5.70;4.60;;;;;;;19.95;84.76;99742.42;129513;1270;107571;-76
2023/07/13 04:11:50;;;;;;;4.40;3.50;;;;;;;19.98;84.65;99738.92;129267;1274;107606;-76
2023/07/13 04:14:55;;;;;;;6.80;4.20;;;;;;;19.95;84.41;99742.27;129306;1273;108768;-76
2023/07/13 04:18:02;;;;;;;5.00;4.10;;;;;;;19.92;84.48;99743.30;129544;1273;105617;-76
2023/07/13 04:21:09;;;;;;;5.30;4.80;;;;;;;19.90;84.79;99743.58;129306;1267;107663;-76
2023/07/13 04:24:15;;;;;;;5.70;5.10;;;;;;;19.92;84.78;99748.02;129287;1271;107597;-76
2023/07/13 04:27:20;;;;;;;5.80;4.70;;;;;;;19.88;84.74;99749.73;129455;1277;107645;-76
2023/07/13 04:30:26;;;;;;;7.40;5.40;;;;;;;19.87;85.07;99759.12;129424;1267;107383;-76
2023/07/13 04:33:31;;;;;;;8.50;5.30;;;;;;;19.85;85.33;99761.23;129377;1273;107616;-76
2023/07/13 04:36:37;;;;;;;6.10;5.50;;;;;;;19.86;85.57;99769.83;129303;1273;106532;-76
2023/07/13 04:39:42;;;;;;;8.30;6.30;;;;;;;19.90;85.78;99774.91;129404;1273;107324;-76
2023/07/13 04:42:48;;;;;;;9.40;5.90;;;;;;;19.93;85.89;99778.58;129414;1273;105688;-76
2023/07/13 04:45:55;;;;;;;9.20;5.90;;;;;;;19.99;86.02;99782.39;129483;1273;106639;-76
2023/07/13 04:49:00;;;;;;;8.50;5.70;;;;;;;20.05;86.06;99789.11;129660;1273;107588;-77
2023/07/13 04:52:08;;;;;;;10.50;6.30;;;;;;;20.10;86.17;99787.80;129483;1273;107558;-77
2023/07/13 04:55:14;;;;;;;9.40;6.90;;;;;;;20.18;86.35;99783.48;129613;1282;107003;-76
2023/07/13 04:58:19;;;;;;;10.00;7.20;;;;;;;20.22;86.54;99780.86;129884;1267;107321;-76
2023/07/13 05:01:25;;;;;;;9.90;6.90;;;;;;;20.23;86.50;99773.58;129490;1267;107185;-77
2023/07/13 05:04:30;;;;;;;8.50;6.20;;;;;;;20.27;86.61;99771.70;129504;1271;107582;-77
2023/07/13 05:07:36;;;;;;;8.70;6.70;;;;;;;20.34;86.78;99769.18;129292;1273;107570;-77
2023/07/13 05:10:41;;;;;;;8.50;6.00;;;;;;;20.44;87.05;99776.98;129385;1281;107592;-77
2023/07/13 05:13:47;;;;;;;8.70;6.40;;;;;;;20.55;87.22;99781.89;129489;1268;107132;-76
2023/07/13 05:16:52;;;;;;;7.50;6.50;;;;;;;20.65;87.16;99788.85;129507;1267;105875;-77
2023/07/13 05:19:58;;;;;;;9.10;6.00;;;;;;;20.75;87.27;99787.33;129419;1273;107594;-77
2023/07/13 05:23:03;;;;;;;8.00;6.60;;;;;;;20.86;87.14;99792.16;129443;1273;107613;-77
2023/07/13 05:26:09;;;;;;;8.50;6.70;;;;;;;21.00;87.09;99791.86;129430;1271;107248;-77
2023/07/13 05:29:14;;;;;;;10.70;7.40;;;;;;;21.18;87.17;99796.91;129385;1267;107572;-77
2023/07/13 05:32:21;;;;;;;7.50;6.70;;;;;;;21.37;86.95;99801.60;129505;1267;106837;-76
2023/07/13 05:35:26;;;;;;;9.60;6.60;;;;;;;21.53;87.27;99800.77;129611;1281;107573;-77
2023/07/13 05:38:32;;;;;;;11.40;7.00;;;;;;;21.69;87.07;99793.50;129582;1273;107553;-77
2023/07/13 05:41:38;;;;;;;9.30;7.00;;;;;;;21.81;86.98;99784.58;129628;1273;105951;-77
2023/07/13 05:44:44;;;;;;;9.50;6.60;;;;;;;21.90;86.83;99786.30;129523;1273;107427;-76
2023/07/13 05:47:50;;;;;;;9.40;6.80;;;;;;;21.94;86.50;99791.39;129438;1271;107552;-76
2023/07/13 05:50:55;;;;;;;14.80;12.20;;;;;;;21.95;86.66;99791.52;129364;1269;107331;-76
2023/07/13 05:54:01;;;;;;;9.50;8.10;;;;;;;22.05;87.30;99790.80;129365;1274;107552;-76
2023/07/13 05:57:07;;;;;;;9.90;7.80;;;;;;;22.30;87.17;99793.98;129457;1271;107476;-76
2023/07/13 06:00:15;;;;;;;9.40;8.20;;;;;;;22.59;87.11;99795.09;129431;1273;105745;-76
2023/07/13 06:03:21;;;;;;;11.00;6.80;;;;;;;22.77;86.43;99795.02;129461;1275;107255;-77
2023/07/13 06:06:26;;;;;;;9.00;6.50;;;;;;;22.96;86.64;99799.49;129505;1283;109308;-77
2023/07/13 06:09:32;;;;;;;7.90;6.80;;;;;;;23.23;86.55;99796.23;129288;1267;106499;-77
2023/07/13 06:12:38;;;;;;;7.80;6.10;;;;;;;23.48;86.16;99797.10;129488;1274;107267;-77
2023/07/13 06:15:43;;;;;;;8.20;6.80;;;;;;;23.67;86.04;99792.23;129334;1273;107586;-77
2023/07/13 06:18:49;;;;;;;6.90;5.80;;;;;;;23.76;85.66;99792.77;129309;1273;107014;-77
2023/07/13 06:21:54;;;;;;;10.00;5.90;;;;;;;23.89;85.81;99795.25;129395;1273;107699;-77
2023/07/13 06:25:00;;;;;;;9.30;6.10;;;;;;;24.06;85.66;99791.04;129353;1267;107562;-78
2023/07/13 06:28:05;;;;;;;8.30;6.10;;;;;;;24.26;85.49;99789.69;129434;1273;109096;-78
2023/07/13 06:31:13;;;;;;;7.30;5.80;;;;;;;24.37;85.30;99785.95;129518;1267;107681;-77
2023/07/13 06:34:19;;;;;;;7.50;5.50;;;;;;;24.35;84.93;99789.37;129404;1272;107433;-77
2023/07/13 06:37:24;;;;;;;8.10;5.90;;;;;;;24.30;84.54;99794.44;129395;1273;107553;-78
2023/07/13 06:40:30;;;;;;;6.70;5.80;;;;;;;24.29;84.59;99797.54;129453;1272;107537;-78
2023/07/13 06:43:36;;;;;;;7.90;6.60;;;;;;;24.36;84.23;99796.85;129411;1267;107264;-77
2023/07/13 06:46:41;;;;;;;9.00;6.60;;;;;;;24.42;84.13;99793.00;129342;1267;107532;-76
2023/07/13 06:49:46;;;;;;;7.70;6.40;;;;;;;24.52;83.39;99792.24;129397;1273;107564;-76
2023/07/13 06:52:52;;;;;;;7.60;6.30;;;;;;;24.59;83.60;99786.02;129532;1271;106846;-77
2023/07/13 06:55:58;;;;;;;6.60;5.80;;;;;;;24.62;83.42;99781.13;129468;1269;107283;-76
2023/07/13 06:59:03;;;;;;;6.40;5.80;;;;;;;24.63;83.08;99779.81;129319;1267;107552;-77
2023/07/13 07:02:11;;;;;;;6.30;5.30;;;;;;;24.61;83.53;99777.84;129531;1272;108015;-77
2023/07/13 07:05:17;;;;;;;7.60;5.70;;;;;;;24.66;83.56;99777.73;129541;1281;107513;-77
2023/07/13 07:08:23;;;;;;;7.10;5.90;;;;;;;24.73;82.55;99779.92;129469;1272;107265;-76
2023/07/13 07:11:28;;;;;;;6.60;5.80;;;;;;;24.77;81.70;99779.02;129395;1267;107572;-77
2023/07/13 07:14:34;;;;;;;7.10;5.60;;;;;;;24.84;81.47;99778.11;129442;1273;107514;-76
2023/07/13 07:17:40;;;;;;;7.30;5.30;;;;;;;24.90;81.00;99777.52;129439;1274;108199;-76
2023/07/13 07:20:46;;;;;;;7.20;5.60;;;;;;;24.90;80.19;99780.89;129508;1271;107533;-76
2023/07/13 07:23:52;;;;;;;7.40;4.90;;;;;;;24.87;79.95;99779.34;129435;1274;107565;-76
2023/07/13 07:26:58;;;;;;;6.10;4.50;;;;;;;24.90;80.43;99777.67;129554;1273;107546;-77
2023/07/13 07:30:04;;;;;;;7.00;5.50;;;;;;;25.05;80.38;99780.52;129514;1269;107464;-76
2023/07/13 07:33:09;;;;;;;6.50;5.20;;;;;;;25.19;79.86;99781.41;129636;1274;106556;-76
2023/07/13 07:36:16;;;;;;;6.20;5.10;;;;;;;25.32;79.25;99783.98;129603;1273;107600;-77
2023/07/13 07:39:21;;;;;;;6.70;5.50;;;;;;;25.46;79.37;99787.75;129394;1282;107395;-75
2023/07/13 07:42:27;;;;;;;7.70;5.70;;;;;;;25.58;79.44;99786.12;129536;1273;106640;-77
2023/07/13 07:45:33;;;;;;;7.30;5.30;;;;;;;25.64;78.81;99782.71;129633;1271;107565;-77
2023/07/13 07:48:38;;;;;;;6.40;5.30;;;;;;;25.65;78.83;99780.98;129585;1270;107513;-77
2023/07/13 07:51:44;;;;;;;6.10;5.20;;;;;;;25.62;77.68;99779.42;129681;1271;106722;-76
2023/07/13 07:54:49;;;;;;;5.90;5.10;;;;;;;25.62;77.53;99785.66;129519;1267;107504;-77
2023/07/13 07:57:55;;;;;;;5.90;5.00;;;;;;;25.67;75.63;99788.41;129718;1267;107576;-76
2023/07/13 08:01:06;;;;;;;8.20;5.20;;;;;;;25.78;77.31;99793.17;129571;1280;107326;-76
2023/07/13 08:04:13;;;;;;;6.10;5.50;;;;;;;25.98;77.58;99790.09;129798;1267;107592;-78
2023/07/13 08:07:22;;;;;;;7.10;5.60;;;;;;;26.14;77.08;99789.71;129324;1267;107365;-79
2023/07/13 08:10:27;;;;;;;6.90;5.60;;;;;;;26.22;76.95;99792.70;129681;1267;107562;-78
2023/07/13 08:13:33;;;;;;;6.00;5.40;;;;;;;26.31;76.81;99793.31;129282;1267;108623;-77
2023/07/13 08:16:39;;;;;;;6.40;5.30;;;;;;;26.41;76.63;99795.10;129490;1268;107620;-77
2023/07/13 08:19:44;;;;;;;7.70;5.10;;;;;;;26.47;76.04;99797.09;129541;1267;108142;-78
2023/07/13 08:22:50;;;;;;;5.80;5.30;;;;;;;26.59;75.86;99797.23;129733;1267;107574;-77
2023/07/13 08:25:56;;;;;;;6.70;5.70;;;;;;;26.74;75.13;99802.15;129750;1270;107615;-77
2023/07/13 08:29:03;;;;;;;7.20;5.40;;;;;;;26.88;75.09;99806.83;129492;1273;107518;-76
2023/07/13 08:32:10;;;;;;;7.60;5.10;;;;;;;27.01;74.68;99815.54;129413;1273;107545;-76
2023/07/13 08:35:16;;;;;;;6.40;5.70;;;;;;;27.01;74.31;99818.01;129494;1268;107540;-76
2023/07/13 08:38:22;;;;;;;5.90;5.30;;;;;;;26.97;73.05;99817.67;129512;1273;106876;-76
2023/07/13 08:41:28;;;;;;;9.10;5.50;;;;;;;26.94;73.87;99819.77;129577;1274;106898;-76
2023/07/13 08:44:51;;;;;;;6.20;5.30;;;;;;;26.92;72.81;99822.92;129549;1274;107586;-76
2023/07/13 08:48:02;;;;;;;6.50;5.80;;;;;;;26.91;72.93;99826.75;129449;1267;107336;-77
2023/07/13 08:51:19;;;;;;;8.40;5.30;;;;;;;26.91;72.22;99825.01;129347;1274;106791;-76
2023/07/13 08:54:29;;;;;;;7.50;5.90;;;;;;;26.85;72.08;99830.48;129371;1271;107577;-77
2023/07/13 08:57:35;;;;;;;8.30;7.10;;;;;;;26.65;71.59;99829.01;129363;1273;107578;-77
2023/07/13 09:00:50;;;;;;;8.80;7.60;;;;;;;26.34;72.16;99833.55;129607;1272;107530;-76
2023/07/13 09:04:02;;;;;;;9.40;7.70;;;;;;;26.09;72.56;99832.19;129556;1270;107519;-77
2023/07/13 09:07:18;;;;;;;7.60;6.90;;;;;;;25.86;72.88;99833.30;129594;1273;107596;-77
2023/07/13 09:10:30;;;;;;;9.40;7.50;;;;;;;25.75;73.12;99833.33;129277;1273;107478;-77
2023/07/13 09:13:38;;;;;;;;;;;;;;;25.59;73.41;99838.15;129354;1272;107548;-76
2023/07/13 09:16:45;;;;;;;8.90;6.70;;;;;;;25.50;73.41;99839.13;129366;1273;107603;-76
2023/07/13 09:19:57;;;;;;;8.30;6.80;;;;;;;25.41;73.34;99837.42;129352;1268;107304;-76
2023/07/13 09:23:11;;;;;;;7.40;6.70;;;;;;;25.36;73.97;99835.79;129468;1267;107556;-76
2023/07/13 09:26:21;;;;;;;7.50;6.70;;;;;;;25.38;74.04;99831.34;129548;1271;107447;-76
2023/07/13 09:29:32;;;;;;;7.80;6.30;;;;;;;25.34;72.68;99829.27;129557;1271;107623;-76
2023/07/13 09:32:40;;;;;;;8.40;6.00;;;;;;;25.31;73.25;99828.17;129539;1267;107424;-76
2023/07/13 09:35:46;;;;;;;8.00;6.20;;;;;;;25.31;73.14;99825.27;129594;1273;107712;-76
2023/07/13 09:39:04;;;;;;;6.80;6.00;;;;;;;25.33;73.09;99829.88;129329;1268;108730;-76
2023/07/13 09:42:18;;;;;;;7.20;6.50;;;;;;;25.35;73.32;99830.39;129417;1267;107297;-76
2023/07/13 09:45:37;;;;;;;6.80;6.10;;;;;;;25.34;73.11;99831.52;129384;1273;107144;-77
2023/07/13 09:48:45;;;;;;;7.10;6.10;;;;;;;25.27;72.90;99833.20;129496;1274;107286;-76
2023/07/13 09:51:58;;;;;;;11.10;6.50;;;;;;;25.14;72.23;99834.11;129542;1268;109252;-76
2023/07/13 09:55:03;;;;;;;8.00;7.30;;;;;;;25.03;72.61;99833.63;129480;1268;108420;-75
2023/07/13 09:58:14;;;;;;;8.10;7.30;;;;;;;25.03;72.85;99832.60;129501;1271;107573;-75
2023/07/13 10:01:34;;;;;;;8.50;7.50;;;;;;;25.15;72.48;99832.98;129360;1268;107289;-76
2023/07/13 10:04:41;;;;;;;15.40;11.50;;;;;;;25.01;72.23;99849.98;129274;1268;107645;-76
2023/07/13 10:07:47;;;;;;;13.40;11.50;;;;;;;24.66;72.63;99842.37;129305;1274;108175;-76
2023/07/13 10:10:59;;;;;;;14.00;12.20;;;;;;;24.39;72.95;99846.35;129418;1268;109339;-76
2023/07/13 10:14:13;;;;;;;16.40;11.30;;;;;;;24.26;72.41;99841.66;129635;1273;107626;-75
2023/07/13 10:17:24;;;;;;;13.40;11.10;;;;;;;24.28;72.92;99835.81;129509;1268;106986;-76
2023/07/13 10:20:29;;;;;;;10.90;9.60;;;;;;;24.46;72.47;99827.63;129555;1271;108681;-75
2023/07/13 10:23:35;;;;;;;11.40;9.60;;;;;;;24.64;71.27;99823.05;129492;1271;107589;-75
2023/07/13 10:26:47;;;;;;;12.30;11.10;;;;;;;24.77;70.52;99821.48;129450;1267;108657;-78
2023/07/13 10:29:55;;;;;;;;;;;;;;;24.75;69.52;99820.31;129569;1273;107227;-76
2023/07/13 10:33:03;;;;;;;15.70;14.10;;;;;;;24.79;70.65;99816.32;129506;1273;106888;-76
2023/07/13 10:36:29;;;;;;;15.00;13.40;;;;;;;24.88;71.33;99815.63;129568;1267;107600;-76
2023/07/13 10:39:37;;;;;;;16.90;15.30;;;;;;;24.99;71.13;99814.27;129532;1273;106548;-76
2023/07/13 10:42:45;;;;;;;19.30;16.70;;;;;;;24.79;70.98;99811.78;129544;1268;107669;-76
2023/07/13 10:45:54;;;;;;;18.70;16.90;;;;;;;24.59;71.31;99813.29;129490;1268;107577;-76
2023/07/13 10:49:06;;;;;;;16.70;15.10;;;;;;;24.52;71.88;99814.30;129342;1273;107437;-76
2023/07/13 10:52:42;;;;;;;19.30;17.00;;;;;;;24.53;72.06;99814.78;129374;1273;107244;-76
2023/07/13 10:56:00;;;;;;;18.40;16.70;;;;;;;24.33;72.38;99826.65;129406;1267;107041;-76
2023/07/13 10:59:16;;;;;;;19.20;17.30;;;;;;;24.18;72.89;99827.88;129608;1272;107509;-76
2023/07/13 11:02:28;;;;;;;22.40;16.90;;;;;;;24.11;72.87;99824.73;129416;1273;107564;-76
2023/07/13 11:05:35;;;;;;;18.30;16.30;;;;;;;24.08;73.11;99831.35;129283;1267;108855;-77
2023/07/13 11:08:55;;;;;;;17.30;15.70;;;;;;;24.05;73.38;99836.61;129662;1267;107290;-76
2023/07/13 11:12:02;;;;;;;16.60;14.80;;;;;;;24.03;73.14;99843.55;129340;1273;107568;-76
2023/07/13 11:15:13;;;;;;;16.50;14.90;;;;;;;24.02;72.98;99845.50;129421;1271;107382;-76
2023/07/13 11:18:26;;;;;;;16.10;14.40;;;;;;;23.98;72.28;99850.46;129414;1273;107595;-76
2023/07/13 11:21:31;;;;;;;15.40;13.80;;;;;;;23.90;72.20;99851.77;129360;1273;107522;-76
2023/07/13 11:24:53;;;;;;;15.10;13.60;;;;;;;23.89;72.13;99856.06;129492;1272;107589;-76
2023/07/13 11:28:23;;;;;;;15.00;13.20;;;;;;;23.86;71.52;99863.60;129435;1267;108730;-78
2023/07/13 11:31:33;;;;;;;15.10;11.70;;;;;;;23.78;70.83;99870.65;129337;1273;107510;-78
2023/07/13 11:34:42;;;;;;;13.60;12.30;;;;;;;23.75;70.40;99877.23;129362;1273;107626;-78
2023/07/13 11:37:49;;;;;;;13.40;12.10;;;;;;;23.69;70.18;99881.51;129443;1267;107581;-77
2023/07/13 11:40:59;;;;;;;13.60;12.30;;;;;;;23.69;70.95;99882.42;129422;1274;107586;-78
2023/07/13 11:44:15;;;;;;;12.80;11.50;;;;;;;23.75;71.33;99883.23;129447;1282;107581;-77
2023/07/13 11:47:22;;;;;;;12.30;11.00;;;;;;;23.80;71.23;99885.47;129348;1283;107411;-76
2023/07/13 11:50:28;;;;;;;12.90;11.60;;;;;;;23.92;71.66;99885.63;129319;1267;107477;-77
2023/07/13 11:53:46;;;;;;;11.80;10.60;;;;;;;24.11;71.72;99880.13;129350;1273;107402;-76
2023/07/13 11:56:51;;;;;;;12.60;11.40;;;;;;;24.30;70.86;99883.93;129517;1273;107541;-76
2023/07/13 11:59:59;;;;;;;11.50;10.40;;;;;;;24.34;70.43;99891.40;129355;1268;107631;-76
2023/07/13 12:03:06;;;;;;;11.30;10.20;;;;;;;24.40;70.08;99894.19;129551;1272;107277;-77
2023/07/13 12:06:26;;;;;;;11.10;10.10;;;;;;;24.41;68.87;99894.27;129455;1272;107539;-77
2023/07/13 12:09:31;;;;;;;10.80;9.80;;;;;;;24.39;68.54;99892.43;129497;1273;107472;-76
2023/07/13 12:12:38;;;;;;;10.90;10.00;;;;;;;24.42;69.10;99896.72;129286;1272;107290;-77
2023/07/13 12:15:48;;;;;;;10.10;9.20;;;;;;;24.45;68.96;99895.46;129426;1273;107583;-76
2023/07/13 12:18:55;;;;;;;11.60;10.40;;;;;;;24.53;69.60;99894.81;129429;1267;107342;-77
2023/07/13 12:22:01;;;;;;;11.60;10.40;;;;;;;24.59;69.22;99891.57;129446;1273;106930;-76
2023/07/13 12:25:12;;;;;;;12.50;11.10;;;;;;;24.54;68.80;99895.44;129350;1273;107630;-76
2023/07/13 12:28:34;;;;;;;12.60;11.40;;;;;;;24.46;68.72;99899.13;129503;1273;107510;-77
2023/07/13 12:31:44;;;;;;;12.90;11.60;;;;;;;24.26;67.88;99906.40;129368;1267;107481;-76
2023/07/13 12:35:08;;;;;;;12.40;11.10;;;;;;;24.09;68.58;99906.43;129625;1267;107701;-76
2023/07/13 12:38:14;;;;;;;12.60;11.30;;;;;;;24.05;69.23;99900.22;129532;1268;107310;-75
2023/07/13 12:41:20;;;;;;;12.20;11.00;;;;;;;24.10;69.62;99895.05;129344;1270;106590;-76
2023/07/13 12:44:30;;;;;;;12.10;10.90;;;;;;;24.13;68.96;99897.60;129592;1270;107630;-77
2023/07/13 12:47:45;;;;;;;11.60;10.50;;;;;;;24.10;68.75;99900.23;129477;1267;107864;-74
2023/07/13 12:50:51;;;;;;;11.70;10.60;;;;;;;24.12;69.41;99902.77;129402;1273;106637;-75
2023/07/13 12:54:06;;;;;;;12.50;11.30;;;;;;;24.09;67.83;99902.19;129547;1272;106536;-76
2023/07/13 12:57:18;;;;;;;12.20;10.90;;;;;;;23.98;68.26;99899.80;129484;1268;107587;-76
2023/07/13 13:00:29;;;;;;;12.40;11.20;;;;;;;23.92;68.52;99907.39;129539;1271;107591;-77
2023/07/13 13:03:36;;;;;;;13.50;12.10;;;;;;;23.87;69.21;99905.40;129505;1270;107611;-77
2023/07/13 13:06:43;;;;;;;13.20;12.00;;;;;;;23.82;69.69;99911.55;129449;1272;107415;-76
2023/07/13 13:09:48;;;;;;;13.90;10.70;;;;;;;23.76;70.12;99905.39;129488;1267;107955;-77
2023/07/13 13:12:54;;;;;;;6.90;6.20;;;;;;;23.77;69.72;99908.77;129469;1270;108421;-77
2023/07/13 13:16:06;;;;;;;6.40;4.60;;;;;;;23.84;69.39;99914.30;129496;1273;107459;-76
2023/07/13 13:19:16;;;;;;;4.80;4.40;;;;;;;23.89;68.94;99915.41;129539;1268;107556;-76
2023/07/13 13:22:22;;;;;;;5.50;4.70;;;;;;;23.94;69.21;99907.13;129585;1268;106444;-78
2023/07/13 13:25:28;;;;;;;5.70;4.10;;;;;;;23.99;69.10;99897.23;129466;1274;107191;-76
2023/07/13 13:28:34;;;;;;;5.00;4.10;;;;;;;24.02;68.70;99893.29;129547;1272;107550;-76
2023/07/13 13:31:40;;;;;;;4.90;4.30;;;;;;;24.04;68.73;99898.39;129462;1271;107300;-76
2023/07/13 13:34:46;;;;;;;4.80;4.30;;;;;;;24.04;68.61;99906.20;129325;1267;106867;-76
2023/07/13 13:37:52;;;;;;;4.70;4.30;;;;;;;24.09;68.44;99903.16;129338;1270;107543;-76
2023/07/13 13:40:57;;;;;;;5.20;4.10;;;;;;;24.16;68.52;99900.54;129506;1270;108047;-76
2023/07/13 13:44:05;;;;;;;4.70;4.30;;;;;;;24.29;68.35;99896.79;129517;1273;106750;-76
2023/07/13 13:47:25;;;;;;;5.60;4.40;;;;;;;24.41;68.17;99894.81;129417;1268;108137;-77
2023/07/13 13:50:34;;;;;;;5.90;5.30;;;;;;;24.56;67.91;99899.49;129397;1267;107595;-76
2023/07/13 13:53:39;;;;;;;5.60;5.10;;;;;;;24.68;67.56;99900.73;129561;1271;107565;-76
2023/07/13 13:56:47;;;;;;;8.50;5.50;;;;;;;24.78;67.59;99902.27;129356;1274;107681;-77
2023/07/13 13:59:53;;;;;;;5.90;5.30;;;;;;;24.86;67.34;99909.86;129462;1271;106659;-76
2023/07/13 14:02:59;;;;;;;6.40;5.80;;;;;;;24.89;67.12;99918.42;129291;1267;106296;-76
2023/07/13 14:06:05;;;;;;;7.70;5.90;;;;;;;24.85;66.92;99917.19;129428;1268;107651;-77
2023/07/13 14:09:14;;;;;;;8.40;5.80;;;;;;;24.79;67.08;99917.38;129501;1273;106550;-76
2023/07/13 14:12:20;;;;;;;6.80;5.50;;;;;;;24.74;66.98;99920.00;129349;1268;107563;-75
2023/07/13 14:15:28;;;;;;;4.70;4.30;;;;;;;24.69;67.06;99924.54;129523;1273;106461;-78
2023/07/13 14:18:34;;;;;;;4.80;4.30;;;;;;;24.65;66.56;99929.34;129370;1271;107539;-76
2023/07/13 14:21:39;;;;;;;4.30;3.90;;;;;;;24.58;66.46;99928.39;129560;1267;107594;-76